sensor_id;sensor_type;location;lat;lon;timestamp;temperature;humidity
14884;DHT22;7534;50.762;7.000;2023-11-19T00:00:53;10.70;94.40
14884;DHT22;7534;50.762;7.000;2023-11-19T00:03:18;10.70;94.50
14884;DHT22;7534;50.762;7.000;2023-11-19T00:05:44;10.70;94.70
14884;DHT22;7534;50.762;7.000;2023-11-19T00:08:10;10.60;94.90
14884;DHT22;7534;50.762;7.000;2023-11-19T00:10:36;10.60;95.10
14884;DHT22;7534;50.762;7.000;2023-11-19T00:13:05;10.50;95.10
14884;DHT22;7534;50.762;7.000;2023-11-19T00:15:32;10.50;95.80
14884;DHT22;7534;50.762;7.000;2023-11-19T00:17:58;10.50;95.80
14884;DHT22;7534;50.762;7.000;2023-11-19T00:20:24;10.50;96.00
14884;DHT22;7534;50.762;7.000;2023-11-19T00:22:50;10.50;96.20
14884;DHT22;7534;50.762;7.000;2023-11-19T00:25:36;10.40;96.10
14884;DHT22;7534;50.762;7.000;2023-11-19T00:28:05;10.50;96.60
14884;DHT22;7534;50.762;7.000;2023-11-19T00:30:34;10.60;96.70
14884;DHT22;7534;50.762;7.000;2023-11-19T00:33:06;10.60;96.60
14884;DHT22;7534;50.762;7.000;2023-11-19T00:35:43;10.60;96.50
14884;DHT22;7534;50.762;7.000;2023-11-19T00:38:19;10.60;96.70
14884;DHT22;7534;50.762;7.000;2023-11-19T00:41:04;10.70;96.90
14884;DHT22;7534;50.762;7.000;2023-11-19T00:43:42;10.90;96.50
14884;DHT22;7534;50.762;7.000;2023-11-19T00:46:35;10.80;96.30
14884;DHT22;7534;50.762;7.000;2023-11-19T00:49:16;10.90;96.30
14884;DHT22;7534;50.762;7.000;2023-11-19T00:51:41;11.00;96.00
14884;DHT22;7534;50.762;7.000;2023-11-19T00:54:07;11.00;95.80
14884;DHT22;7534;50.762;7.000;2023-11-19T00:56:38;11.00;95.70
14884;DHT22;7534;50.762;7.000;2023-11-19T00:59:05;11.10;95.80
14884;DHT22;7534;50.762;7.000;2023-11-19T01:01:31;11.10;95.40
14884;DHT22;7534;50.762;7.000;2023-11-19T01:04:07;11.20;95.30
14884;DHT22;7534;50.762;7.000;2023-11-19T01:06:33;11.20;95.20
14884;DHT22;7534;50.762;7.000;2023-11-19T01:08:59;11.20;95.30
14884;DHT22;7534;50.762;7.000;2023-11-19T01:11:26;11.20;95.40
14884;DHT22;7534;50.762;7.000;2023-11-19T01:13:52;11.20;95.50
14884;DHT22;7534;50.762;7.000;2023-11-19T01:16:19;11.30;95.40
14884;DHT22;7534;50.762;7.000;2023-11-19T01:18:49;11.30;95.10
14884;DHT22;7534;50.762;7.000;2023-11-19T01:21:15;11.30;94.90
14884;DHT22;7534;50.762;7.000;2023-11-19T01:23:42;11.30;95.20
14884;DHT22;7534;50.762;7.000;2023-11-19T01:26:12;11.20;95.40
14884;DHT22;7534;50.762;7.000;2023-11-19T01:28:38;11.30;95.50
14884;DHT22;7534;50.762;7.000;2023-11-19T01:31:14;11.30;95.60
14884;DHT22;7534;50.762;7.000;2023-11-19T01:33:46;11.30;95.60
14884;DHT22;7534;50.762;7.000;2023-11-19T01:36:15;11.30;95.60
14884;DHT22;7534;50.762;7.000;2023-11-19T01:38:40;11.30;95.60
14884;DHT22;7534;50.762;7.000;2023-11-19T01:41:07;11.40;95.50
14884;DHT22;7534;50.762;7.000;2023-11-19T01:44:01;11.40;95.40
14884;DHT22;7534;50.762;7.000;2023-11-19T01:46:30;11.40;95.30
14884;DHT22;7534;50.762;7.000;2023-11-19T01:48:58;11.40;95.20
14884;DHT22;7534;50.762;7.000;2023-11-19T01:51:35;11.50;95.30
14884;DHT22;7534;50.762;7.000;2023-11-19T01:54:19;11.50;94.90
14884;DHT22;7534;50.762;7.000;2023-11-19T01:56:45;11.50;94.80
14884;DHT22;7534;50.762;7.000;2023-11-19T01:59:13;11.50;94.80
14884;DHT22;7534;50.762;7.000;2023-11-19T02:01:40;11.40;95.10
14884;DHT22;7534;50.762;7.000;2023-11-19T02:04:11;11.40;95.30
14884;DHT22;7534;50.762;7.000;2023-11-19T02:06:43;11.40;95.70
14884;DHT22;7534;50.762;7.000;2023-11-19T02:09:22;11.40;95.60
14884;DHT22;7534;50.762;7.000;2023-11-19T02:11:48;11.50;95.60
14884;DHT22;7534;50.762;7.000;2023-11-19T02:14:22;11.50;95.60
14884;DHT22;7534;50.762;7.000;2023-11-19T02:16:52;11.50;95.40
14884;DHT22;7534;50.762;7.000;2023-11-19T02:19:23;11.60;95.40
14884;DHT22;7534;50.762;7.000;2023-11-19T02:21:53;11.50;95.40
14884;DHT22;7534;50.762;7.000;2023-11-19T02:24:22;11.50;95.50
14884;DHT22;7534;50.762;7.000;2023-11-19T02:27:08;11.50;95.10
14884;DHT22;7534;50.762;7.000;2023-11-19T02:29:40;11.40;95.10
14884;DHT22;7534;50.762;7.000;2023-11-19T02:32:11;11.40;95.10
14884;DHT22;7534;50.762;7.000;2023-11-19T02:34:39;11.30;95.10
14884;DHT22;7534;50.762;7.000;2023-11-19T02:37:06;11.20;95.50
14884;DHT22;7534;50.762;7.000;2023-11-19T02:39:32;11.10;95.50
14884;DHT22;7534;50.762;7.000;2023-11-19T02:42:00;11.10;96.20
14884;DHT22;7534;50.762;7.000;2023-11-19T02:44:26;11.10;96.70
14884;DHT22;7534;50.762;7.000;2023-11-19T02:46:55;11.10;96.70
14884;DHT22;7534;50.762;7.000;2023-11-19T02:49:21;11.10;97.20
14884;DHT22;7534;50.762;7.000;2023-11-19T02:51:47;11.20;97.30
14884;DHT22;7534;50.762;7.000;2023-11-19T02:54:14;11.20;97.30
14884;DHT22;7534;50.762;7.000;2023-11-19T02:56:42;11.20;97.40
14884;DHT22;7534;50.762;7.000;2023-11-19T02:59:14;11.20;97.50
14884;DHT22;7534;50.762;7.000;2023-11-19T03:02:00;11.20;97.50
14884;DHT22;7534;50.762;7.000;2023-11-19T03:04:26;11.20;97.20
14884;DHT22;7534;50.762;7.000;2023-11-19T03:06:52;11.10;97.00
14884;DHT22;7534;50.762;7.000;2023-11-19T03:09:18;11.10;96.90
14884;DHT22;7534;50.762;7.000;2023-11-19T03:11:47;11.10;97.20
14884;DHT22;7534;50.762;7.000;2023-11-19T03:14:15;11.10;97.40
14884;DHT22;7534;50.762;7.000;2023-11-19T03:16:45;11.10;97.50
14884;DHT22;7534;50.762;7.000;2023-11-19T03:19:19;11.20;97.20
14884;DHT22;7534;50.762;7.000;2023-11-19T03:21:52;11.20;96.60
14884;DHT22;7534;50.762;7.000;2023-11-19T03:24:24;11.20;96.10
14884;DHT22;7534;50.762;7.000;2023-11-19T03:26:55;11.10;95.50
14884;DHT22;7534;50.762;7.000;2023-11-19T03:29:22;11.10;95.30
14884;DHT22;7534;50.762;7.000;2023-11-19T03:31:55;11.10;95.10
14884;DHT22;7534;50.762;7.000;2023-11-19T03:34:46;11.10;94.80
14884;DHT22;7534;50.762;7.000;2023-11-19T03:37:17;11.10;94.30
14884;DHT22;7534;50.762;7.000;2023-11-19T03:39:48;11.10;94.30
14884;DHT22;7534;50.762;7.000;2023-11-19T03:42:16;11.00;94.30
14884;DHT22;7534;50.762;7.000;2023-11-19T03:44:44;11.10;94.00
14884;DHT22;7534;50.762;7.000;2023-11-19T03:47:10;11.10;94.20
14884;DHT22;7534;50.762;7.000;2023-11-19T03:49:49;11.20;93.90
14884;DHT22;7534;50.762;7.000;2023-11-19T03:52:18;11.20;93.40
14884;DHT22;7534;50.762;7.000;2023-11-19T03:54:49;11.10;93.50
14884;DHT22;7534;50.762;7.000;2023-11-19T03:57:27;11.10;93.70
14884;DHT22;7534;50.762;7.000;2023-11-19T04:00:14;11.10;93.80
14884;DHT22;7534;50.762;7.000;2023-11-19T04:03:04;11.20;94.50
14884;DHT22;7534;50.762;7.000;2023-11-19T04:05:47;11.40;93.80
14884;DHT22;7534;50.762;7.000;2023-11-19T04:08:28;11.50;93.40
14884;DHT22;7534;50.762;7.000;2023-11-19T04:11:03;11.50;93.10
14884;DHT22;7534;50.762;7.000;2023-11-19T04:13:50;11.60;92.80
14884;DHT22;7534;50.762;7.000;2023-11-19T04:16:28;11.60;92.60
14884;DHT22;7534;50.762;7.000;2023-11-19T04:21:58;11.70;92.30
14884;DHT22;7534;50.762;7.000;2023-11-19T04:24:27;11.70;92.50
14884;DHT22;7534;50.762;7.000;2023-11-19T04:27:11;11.70;92.20
14884;DHT22;7534;50.762;7.000;2023-11-19T04:29:37;11.80;91.70
14884;DHT22;7534;50.762;7.000;2023-11-19T04:32:17;11.80;91.70
14884;DHT22;7534;50.762;7.000;2023-11-19T04:34:46;11.90;90.90
14884;DHT22;7534;50.762;7.000;2023-11-19T04:37:21;11.80;90.50
14884;DHT22;7534;50.762;7.000;2023-11-19T04:39:52;11.70;90.80
14884;DHT22;7534;50.762;7.000;2023-11-19T04:42:43;11.80;90.20
14884;DHT22;7534;50.762;7.000;2023-11-19T04:45:28;11.70;89.90
14884;DHT22;7534;50.762;7.000;2023-11-19T04:48:05;11.60;90.20
14884;DHT22;7534;50.762;7.000;2023-11-19T04:50:33;11.60;90.00
14884;DHT22;7534;50.762;7.000;2023-11-19T04:53:19;11.70;89.30
14884;DHT22;7534;50.762;7.000;2023-11-19T04:55:54;11.60;89.30
14884;DHT22;7534;50.762;7.000;2023-11-19T04:59:06;11.70;89.20
14884;DHT22;7534;50.762;7.000;2023-11-19T05:04:45;11.70;88.80
14884;DHT22;7534;50.762;7.000;2023-11-19T05:07:15;11.60;89.00
14884;DHT22;7534;50.762;7.000;2023-11-19T05:09:41;11.50;89.30
14884;DHT22;7534;50.762;7.000;2023-11-19T05:12:18;11.50;89.10
14884;DHT22;7534;50.762;7.000;2023-11-19T05:14:50;11.50;88.90
14884;DHT22;7534;50.762;7.000;2023-11-19T05:17:21;11.40;88.80
14884;DHT22;7534;50.762;7.000;2023-11-19T05:19:50;11.30;89.50
14884;DHT22;7534;50.762;7.000;2023-11-19T05:22:30;11.30;89.80
14884;DHT22;7534;50.762;7.000;2023-11-19T05:24:58;11.30;89.60
14884;DHT22;7534;50.762;7.000;2023-11-19T05:27:30;11.40;88.70
14884;DHT22;7534;50.762;7.000;2023-11-19T05:30:00;11.40;88.00
14884;DHT22;7534;50.762;7.000;2023-11-19T05:32:29;11.40;87.70
14884;DHT22;7534;50.762;7.000;2023-11-19T05:34:58;11.30;88.00
14884;DHT22;7534;50.762;7.000;2023-11-19T05:37:27;11.40;87.40
14884;DHT22;7534;50.762;7.000;2023-11-19T05:39:53;11.30;87.30
14884;DHT22;7534;50.762;7.000;2023-11-19T05:42:19;11.40;86.80
14884;DHT22;7534;50.762;7.000;2023-11-19T05:44:45;11.30;86.60
14884;DHT22;7534;50.762;7.000;2023-11-19T05:47:12;11.20;86.70
14884;DHT22;7534;50.762;7.000;2023-11-19T05:49:46;11.20;86.70
14884;DHT22;7534;50.762;7.000;2023-11-19T05:52:18;11.20;85.90
14884;DHT22;7534;50.762;7.000;2023-11-19T05:54:49;11.30;85.50
14884;DHT22;7534;50.762;7.000;2023-11-19T05:57:30;11.40;85.00
14884;DHT22;7534;50.762;7.000;2023-11-19T05:59:56;11.50;84.40
14884;DHT22;7534;50.762;7.000;2023-11-19T06:02:24;11.60;84.30
14884;DHT22;7534;50.762;7.000;2023-11-19T06:05:15;11.60;83.50
14884;DHT22;7534;50.762;7.000;2023-11-19T08:34:42;18.20;56.80
14884;DHT22;7534;50.762;7.000;2023-11-19T08:37:10;18.50;55.20
14884;DHT22;7534;50.762;7.000;2023-11-19T08:39:58;18.10;55.80
14884;DHT22;7534;50.762;7.000;2023-11-19T08:42:42;18.80;54.90
14884;DHT22;7534;50.762;7.000;2023-11-19T08:48:20;19.50;52.50
14884;DHT22;7534;50.762;7.000;2023-11-19T08:50:46;19.70;51.50
14884;DHT22;7534;50.762;7.000;2023-11-19T08:56:22;20.00;51.20
14884;DHT22;7534;50.762;7.000;2023-11-19T09:02:24;19.60;51.70
14884;DHT22;7534;50.762;7.000;2023-11-19T09:05:30;20.30;50.30
14884;DHT22;7534;50.762;7.000;2023-11-19T09:08:24;20.70;49.00
14884;DHT22;7534;50.762;7.000;2023-11-19T09:11:00;20.90;48.00
14884;DHT22;7534;50.762;7.000;2023-11-19T09:13:26;20.70;48.30
14884;DHT22;7534;50.762;7.000;2023-11-19T09:15:57;20.60;47.60
14884;DHT22;7534;50.762;7.000;2023-11-19T09:18:41;20.20;49.00
14884;DHT22;7534;50.762;7.000;2023-11-19T09:21:28;20.30;48.10
14884;DHT22;7534;50.762;7.000;2023-11-19T09:23:57;20.70;47.00
14884;DHT22;7534;50.762;7.000;2023-11-19T09:26:32;21.00;45.60
14884;DHT22;7534;50.762;7.000;2023-11-19T09:29:01;20.70;46.20
14884;DHT22;7534;50.762;7.000;2023-11-19T09:31:31;20.30;46.60
14884;DHT22;7534;50.762;7.000;2023-11-19T09:34:01;19.80;47.30
14884;DHT22;7534;50.762;7.000;2023-11-19T09:36:40;18.90;49.80
14884;DHT22;7534;50.762;7.000;2023-11-19T09:39:13;18.30;52.10
14884;DHT22;7534;50.762;7.000;2023-11-19T09:41:44;17.50;53.70
14884;DHT22;7534;50.762;7.000;2023-11-19T09:44:26;16.50;57.90
14884;DHT22;7534;50.762;7.000;2023-11-19T09:46:58;15.90;61.00
14884;DHT22;7534;50.762;7.000;2023-11-19T09:49:27;15.50;62.40
14884;DHT22;7534;50.762;7.000;2023-11-19T09:51:54;15.10;63.20
14884;DHT22;7534;50.762;7.000;2023-11-19T09:54:29;14.80;64.20
14884;DHT22;7534;50.762;7.000;2023-11-19T09:56:57;14.60;65.00
14884;DHT22;7534;50.762;7.000;2023-11-19T09:59:32;14.50;66.00
14884;DHT22;7534;50.762;7.000;2023-11-19T10:02:08;14.60;65.80
14884;DHT22;7534;50.762;7.000;2023-11-19T10:05:33;14.70;65.70
14884;DHT22;7534;50.762;7.000;2023-11-19T10:08:13;14.80;64.80
14884;DHT22;7534;50.762;7.000;2023-11-19T10:11:19;14.80;64.80
14884;DHT22;7534;50.762;7.000;2023-11-19T10:13:47;14.90;65.00
14884;DHT22;7534;50.762;7.000;2023-11-19T10:16:38;15.00;64.30
14884;DHT22;7534;50.762;7.000;2023-11-19T10:19:08;15.10;64.90
14884;DHT22;7534;50.762;7.000;2023-11-19T10:24:50;15.20;65.10
14884;DHT22;7534;50.762;7.000;2023-11-19T10:27:18;15.20;64.60
14884;DHT22;7534;50.762;7.000;2023-11-19T10:30:06;15.20;64.60
14884;DHT22;7534;50.762;7.000;2023-11-19T10:32:44;15.20;65.00
14884;DHT22;7534;50.762;7.000;2023-11-19T10:35:14;15.20;64.30
14884;DHT22;7534;50.762;7.000;2023-11-19T10:37:43;15.20;64.70
14884;DHT22;7534;50.762;7.000;2023-11-19T10:40:19;15.20;64.10
14884;DHT22;7534;50.762;7.000;2023-11-19T10:42:45;15.40;64.10
14884;DHT22;7534;50.762;7.000;2023-11-19T10:45:24;15.60;63.00
14884;DHT22;7534;50.762;7.000;2023-11-19T10:47:54;15.60;62.60
14884;DHT22;7534;50.762;7.000;2023-11-19T10:50:23;15.50;62.00
14884;DHT22;7534;50.762;7.000;2023-11-19T10:53:12;15.60;62.30
14884;DHT22;7534;50.762;7.000;2023-11-19T10:56:33;15.70;62.40
14884;DHT22;7534;50.762;7.000;2023-11-19T10:59:55;15.80;61.10
14884;DHT22;7534;50.762;7.000;2023-11-19T11:02:41;16.00;60.40
14884;DHT22;7534;50.762;7.000;2023-11-19T11:05:07;16.00;59.80
14884;DHT22;7534;50.762;7.000;2023-11-19T11:07:38;16.10;59.90
14884;DHT22;7534;50.762;7.000;2023-11-19T12:48:19;14.60;66.40
14884;DHT22;7534;50.762;7.000;2023-11-19T12:50:57;14.70;65.80
14884;DHT22;7534;50.762;7.000;2023-11-19T12:53:26;14.80;65.50
14884;DHT22;7534;50.762;7.000;2023-11-19T12:55:53;14.90;65.10
14884;DHT22;7534;50.762;7.000;2023-11-19T12:58:34;14.90;66.00
14884;DHT22;7534;50.762;7.000;2023-11-19T13:01:06;14.80;65.80
14884;DHT22;7534;50.762;7.000;2023-11-19T13:03:35;14.60;66.60
14884;DHT22;7534;50.762;7.000;2023-11-19T13:06:08;14.50;67.20
14884;DHT22;7534;50.762;7.000;2023-11-19T13:08:39;14.40;67.30
14884;DHT22;7534;50.762;7.000;2023-11-19T13:11:06;14.30;68.00
14884;DHT22;7534;50.762;7.000;2023-11-19T13:13:53;14.30;68.10
14884;DHT22;7534;50.762;7.000;2023-11-19T13:16:19;14.40;69.00
14884;DHT22;7534;50.762;7.000;2023-11-19T13:18:45;14.50;68.50
14884;DHT22;7534;50.762;7.000;2023-11-19T13:21:11;14.40;69.30
14884;DHT22;7534;50.762;7.000;2023-11-19T13:23:37;14.30;69.90
14884;DHT22;7534;50.762;7.000;2023-11-19T13:26:04;14.20;70.00
14884;DHT22;7534;50.762;7.000;2023-11-19T13:28:31;14.10;70.70
14884;DHT22;7534;50.762;7.000;2023-11-19T13:30:58;14.00;70.80
14884;DHT22;7534;50.762;7.000;2023-11-19T13:33:23;13.90;71.40
14884;DHT22;7534;50.762;7.000;2023-11-19T13:35:50;13.80;71.40
14884;DHT22;7534;50.762;7.000;2023-11-19T13:38:16;13.80;71.50
14884;DHT22;7534;50.762;7.000;2023-11-19T13:40:43;13.70;71.80
14884;DHT22;7534;50.762;7.000;2023-11-19T13:43:08;13.70;72.00
14884;DHT22;7534;50.762;7.000;2023-11-19T13:45:34;13.80;72.30
14884;DHT22;7534;50.762;7.000;2023-11-19T13:48:00;14.00;71.70
14884;DHT22;7534;50.762;7.000;2023-11-19T13:50:26;14.10;70.70
14884;DHT22;7534;50.762;7.000;2023-11-19T13:52:54;14.20;70.40
14884;DHT22;7534;50.762;7.000;2023-11-19T13:55:20;14.20;69.40
14884;DHT22;7534;50.762;7.000;2023-11-19T13:57:46;14.10;68.90
14884;DHT22;7534;50.762;7.000;2023-11-19T14:00:12;14.00;69.20
14884;DHT22;7534;50.762;7.000;2023-11-19T14:02:42;13.90;69.30
14884;DHT22;7534;50.762;7.000;2023-11-19T14:05:10;13.80;70.00
14884;DHT22;7534;50.762;7.000;2023-11-19T14:07:41;13.80;68.50
14884;DHT22;7534;50.762;7.000;2023-11-19T14:10:12;13.80;68.50
14884;DHT22;7534;50.762;7.000;2023-11-19T14:12:38;13.70;68.70
14884;DHT22;7534;50.762;7.000;2023-11-19T14:15:08;13.80;68.60
14884;DHT22;7534;50.762;7.000;2023-11-19T14:17:35;14.00;68.10
14884;DHT22;7534;50.762;7.000;2023-11-19T14:20:02;14.10;67.50
14884;DHT22;7534;50.762;7.000;2023-11-19T14:22:46;14.20;67.30
14884;DHT22;7534;50.762;7.000;2023-11-19T14:25:15;14.20;68.00
14884;DHT22;7534;50.762;7.000;2023-11-19T14:27:42;14.30;66.10
14884;DHT22;7534;50.762;7.000;2023-11-19T14:30:12;14.40;65.60
14884;DHT22;7534;50.762;7.000;2023-11-19T14:32:40;14.40;65.50
14884;DHT22;7534;50.762;7.000;2023-11-19T14:35:08;14.30;65.70
14884;DHT22;7534;50.762;7.000;2023-11-19T14:37:34;14.30;65.20
14884;DHT22;7534;50.762;7.000;2023-11-19T14:40:00;14.20;64.90
14884;DHT22;7534;50.762;7.000;2023-11-19T14:42:27;14.20;64.90
14884;DHT22;7534;50.762;7.000;2023-11-19T14:44:53;14.20;64.70
14884;DHT22;7534;50.762;7.000;2023-11-19T14:47:20;14.20;64.70
14884;DHT22;7534;50.762;7.000;2023-11-19T14:49:46;14.10;65.10
14884;DHT22;7534;50.762;7.000;2023-11-19T14:52:12;14.00;65.70
14884;DHT22;7534;50.762;7.000;2023-11-19T14:54:38;13.90;66.20
14884;DHT22;7534;50.762;7.000;2023-11-19T14:57:05;13.90;66.20
14884;DHT22;7534;50.762;7.000;2023-11-19T14:59:33;13.90;66.30
14884;DHT22;7534;50.762;7.000;2023-11-19T15:02:00;13.80;67.00
14884;DHT22;7534;50.762;7.000;2023-11-19T15:04:28;13.70;66.70
14884;DHT22;7534;50.762;7.000;2023-11-19T15:06:57;13.60;67.70
14884;DHT22;7534;50.762;7.000;2023-11-19T15:09:23;13.50;68.20
14884;DHT22;7534;50.762;7.000;2023-11-19T15:11:53;13.30;69.10
14884;DHT22;7534;50.762;7.000;2023-11-19T15:14:19;13.20;69.80
14884;DHT22;7534;50.762;7.000;2023-11-19T15:16:51;13.10;70.20
14884;DHT22;7534;50.762;7.000;2023-11-19T15:19:17;13.10;70.90
14884;DHT22;7534;50.762;7.000;2023-11-19T15:21:43;13.00;70.80
14884;DHT22;7534;50.762;7.000;2023-11-19T15:24:09;12.90;71.50
14884;DHT22;7534;50.762;7.000;2023-11-19T15:26:36;12.80;71.90
14884;DHT22;7534;50.762;7.000;2023-11-19T15:29:04;12.70;72.10
14884;DHT22;7534;50.762;7.000;2023-11-19T15:31:30;12.60;72.10
14884;DHT22;7534;50.762;7.000;2023-11-19T15:33:57;12.50;72.70
14884;DHT22;7534;50.762;7.000;2023-11-19T15:36:23;12.40;73.50
14884;DHT22;7534;50.762;7.000;2023-11-19T15:38:48;12.30;73.40
14884;DHT22;7534;50.762;7.000;2023-11-19T15:41:14;12.40;73.60
14884;DHT22;7534;50.762;7.000;2023-11-19T15:43:40;12.40;73.30
14884;DHT22;7534;50.762;7.000;2023-11-19T15:46:08;12.30;74.40
14884;DHT22;7534;50.762;7.000;2023-11-19T15:48:34;12.30;74.00
14884;DHT22;7534;50.762;7.000;2023-11-19T15:51:00;12.40;73.90
14884;DHT22;7534;50.762;7.000;2023-11-19T15:53:26;12.40;74.00
14884;DHT22;7534;50.762;7.000;2023-11-19T15:55:52;12.40;73.90
14884;DHT22;7534;50.762;7.000;2023-11-19T15:58:20;12.40;73.50
14884;DHT22;7534;50.762;7.000;2023-11-19T16:00:48;12.40;73.10
14884;DHT22;7534;50.762;7.000;2023-11-19T16:03:15;12.30;73.30
14884;DHT22;7534;50.762;7.000;2023-11-19T16:05:59;12.30;73.00
14884;DHT22;7534;50.762;7.000;2023-11-19T16:08:25;12.20;72.80
14884;DHT22;7534;50.762;7.000;2023-11-19T16:10:50;12.00;73.50
14884;DHT22;7534;50.762;7.000;2023-11-19T16:13:16;11.80;74.60
14884;DHT22;7534;50.762;7.000;2023-11-19T16:15:42;11.60;75.40
14884;DHT22;7534;50.762;7.000;2023-11-19T16:18:08;11.50;75.60
14884;DHT22;7534;50.762;7.000;2023-11-19T16:20:35;11.50;75.70
14884;DHT22;7534;50.762;7.000;2023-11-19T16:23:01;11.40;75.80
14884;DHT22;7534;50.762;7.000;2023-11-19T16:25:30;11.40;76.40
14884;DHT22;7534;50.762;7.000;2023-11-19T16:27:56;11.50;75.90
14884;DHT22;7534;50.762;7.000;2023-11-19T16:30:23;11.70;75.40
14884;DHT22;7534;50.762;7.000;2023-11-19T16:32:56;11.80;74.80
14884;DHT22;7534;50.762;7.000;2023-11-19T16:35:24;11.90;74.20
14884;DHT22;7534;50.762;7.000;2023-11-19T16:37:50;12.00;74.40
14884;DHT22;7534;50.762;7.000;2023-11-19T16:40:17;12.00;74.30
14884;DHT22;7534;50.762;7.000;2023-11-19T16:42:44;12.10;73.40
14884;DHT22;7534;50.762;7.000;2023-11-19T16:45:14;12.10;73.30
14884;DHT22;7534;50.762;7.000;2023-11-19T16:47:41;12.10;73.00
14884;DHT22;7534;50.762;7.000;2023-11-19T16:50:07;12.20;72.60
14884;DHT22;7534;50.762;7.000;2023-11-19T16:52:33;12.20;73.00
14884;DHT22;7534;50.762;7.000;2023-11-19T16:54:59;12.10;73.30
14884;DHT22;7534;50.762;7.000;2023-11-19T16:57:31;12.10;73.10
14884;DHT22;7534;50.762;7.000;2023-11-19T16:59:57;12.10;72.90
14884;DHT22;7534;50.762;7.000;2023-11-19T17:02:26;12.10;73.00
14884;DHT22;7534;50.762;7.000;2023-11-19T17:04:52;12.10;72.90
14884;DHT22;7534;50.762;7.000;2023-11-19T17:07:18;12.10;72.80
14884;DHT22;7534;50.762;7.000;2023-11-19T17:09:44;12.20;72.40
14884;DHT22;7534;50.762;7.000;2023-11-19T17:12:10;12.10;72.80
14884;DHT22;7534;50.762;7.000;2023-11-19T17:14:38;12.10;73.00
14884;DHT22;7534;50.762;7.000;2023-11-19T17:17:05;12.10;72.30
14884;DHT22;7534;50.762;7.000;2023-11-19T17:19:31;12.10;72.90
14884;DHT22;7534;50.762;7.000;2023-11-19T17:21:57;12.00;73.00
14884;DHT22;7534;50.762;7.000;2023-11-19T17:24:23;12.10;72.40
14884;DHT22;7534;50.762;7.000;2023-11-19T17:26:48;12.00;73.20
14884;DHT22;7534;50.762;7.000;2023-11-19T17:29:15;12.00;72.70
14884;DHT22;7534;50.762;7.000;2023-11-19T17:31:43;11.90;73.10
14884;DHT22;7534;50.762;7.000;2023-11-19T17:34:12;12.00;73.00
14884;DHT22;7534;50.762;7.000;2023-11-19T17:36:41;11.90;73.20
14884;DHT22;7534;50.762;7.000;2023-11-19T17:39:07;11.90;73.10
14884;DHT22;7534;50.762;7.000;2023-11-19T17:41:33;11.80;73.60
14884;DHT22;7534;50.762;7.000;2023-11-19T17:43:59;11.80;73.50
14884;DHT22;7534;50.762;7.000;2023-11-19T17:46:25;11.90;73.50
14884;DHT22;7534;50.762;7.000;2023-11-19T17:48:51;11.90;72.80
14884;DHT22;7534;50.762;7.000;2023-11-19T17:51:17;12.00;72.70
14884;DHT22;7534;50.762;7.000;2023-11-19T17:53:45;12.00;72.80
14884;DHT22;7534;50.762;7.000;2023-11-19T17:56:11;12.10;72.40
14884;DHT22;7534;50.762;7.000;2023-11-19T17:58:37;12.20;71.10
14884;DHT22;7534;50.762;7.000;2023-11-19T18:01:04;12.30;70.80
14884;DHT22;7534;50.762;7.000;2023-11-19T18:03:30;12.40;70.60
14884;DHT22;7534;50.762;7.000;2023-11-19T18:05:59;12.50;70.00
14884;DHT22;7534;50.762;7.000;2023-11-19T18:08:26;12.60;69.80
14884;DHT22;7534;50.762;7.000;2023-11-19T18:10:52;12.60;69.80
14884;DHT22;7534;50.762;7.000;2023-11-19T18:13:17;12.60;70.00
14884;DHT22;7534;50.762;7.000;2023-11-19T18:15:44;12.50;70.70
14884;DHT22;7534;50.762;7.000;2023-11-19T18:18:09;12.50;70.20
14884;DHT22;7534;50.762;7.000;2023-11-19T18:20:35;12.60;69.90
14884;DHT22;7534;50.762;7.000;2023-11-19T18:23:01;12.60;70.00
14884;DHT22;7534;50.762;7.000;2023-11-19T18:25:29;12.60;70.50
14884;DHT22;7534;50.762;7.000;2023-11-19T18:27:55;12.60;70.40
14884;DHT22;7534;50.762;7.000;2023-11-19T18:30:21;12.60;70.40
14884;DHT22;7534;50.762;7.000;2023-11-19T18:32:47;12.60;70.80
14884;DHT22;7534;50.762;7.000;2023-11-19T18:35:13;12.60;70.70
14884;DHT22;7534;50.762;7.000;2023-11-19T18:37:42;12.60;70.80
14884;DHT22;7534;50.762;7.000;2023-11-19T18:40:13;12.60;71.00
14884;DHT22;7534;50.762;7.000;2023-11-19T18:42:44;12.60;70.70
14884;DHT22;7534;50.762;7.000;2023-11-19T18:45:10;12.60;71.50
14884;DHT22;7534;50.762;7.000;2023-11-19T18:47:35;12.60;71.50
14884;DHT22;7534;50.762;7.000;2023-11-19T18:50:04;12.60;71.60
14884;DHT22;7534;50.762;7.000;2023-11-19T18:52:30;12.50;71.70
14884;DHT22;7534;50.762;7.000;2023-11-19T18:54:56;12.50;72.50
14884;DHT22;7534;50.762;7.000;2023-11-19T18:57:23;12.40;72.90
14884;DHT22;7534;50.762;7.000;2023-11-19T18:59:49;12.40;72.50
14884;DHT22;7534;50.762;7.000;2023-11-19T19:02:15;12.40;72.80
14884;DHT22;7534;50.762;7.000;2023-11-19T19:04:44;12.40;73.10
14884;DHT22;7534;50.762;7.000;2023-11-19T19:07:10;12.50;72.90
14884;DHT22;7534;50.762;7.000;2023-11-19T19:09:45;12.40;73.40
14884;DHT22;7534;50.762;7.000;2023-11-19T19:12:21;12.40;73.10
14884;DHT22;7534;50.762;7.000;2023-11-19T19:14:49;12.40;73.70
14884;DHT22;7534;50.762;7.000;2023-11-19T19:17:17;12.40;74.00
14884;DHT22;7534;50.762;7.000;2023-11-19T19:19:43;12.40;73.70
14884;DHT22;7534;50.762;7.000;2023-11-19T19:22:09;12.30;74.30
14884;DHT22;7534;50.762;7.000;2023-11-19T19:24:35;12.40;74.00
14884;DHT22;7534;50.762;7.000;2023-11-19T19:27:02;12.40;73.90
14884;DHT22;7534;50.762;7.000;2023-11-19T19:29:31;12.40;74.40
14884;DHT22;7534;50.762;7.000;2023-11-19T19:31:57;12.40;74.20
14884;DHT22;7534;50.762;7.000;2023-11-19T19:34:26;12.40;73.90
14884;DHT22;7534;50.762;7.000;2023-11-19T19:36:54;12.40;74.30
14884;DHT22;7534;50.762;7.000;2023-11-19T19:39:24;12.40;74.20
14884;DHT22;7534;50.762;7.000;2023-11-19T19:41:50;12.30;74.60
14884;DHT22;7534;50.762;7.000;2023-11-19T19:44:16;12.40;74.50
14884;DHT22;7534;50.762;7.000;2023-11-19T19:46:48;12.30;74.80
14884;DHT22;7534;50.762;7.000;2023-11-19T19:49:13;12.30;74.80
14884;DHT22;7534;50.762;7.000;2023-11-19T19:51:41;12.30;74.60
14884;DHT22;7534;50.762;7.000;2023-11-19T19:54:07;12.30;74.70
14884;DHT22;7534;50.762;7.000;2023-11-19T19:56:33;12.20;75.00
14884;DHT22;7534;50.762;7.000;2023-11-19T19:58:59;12.20;75.70
14884;DHT22;7534;50.762;7.000;2023-11-19T20:01:26;12.20;75.10
14884;DHT22;7534;50.762;7.000;2023-11-19T20:03:53;12.20;75.50
14884;DHT22;7534;50.762;7.000;2023-11-19T20:06:21;12.30;74.90
14884;DHT22;7534;50.762;7.000;2023-11-19T20:08:49;12.40;74.80
14884;DHT22;7534;50.762;7.000;2023-11-19T20:11:15;12.40;74.70
14884;DHT22;7534;50.762;7.000;2023-11-19T20:13:41;12.30;74.80
14884;DHT22;7534;50.762;7.000;2023-11-19T20:16:13;12.30;75.10
14884;DHT22;7534;50.762;7.000;2023-11-19T20:18:52;12.30;75.10
14884;DHT22;7534;50.762;7.000;2023-11-19T20:21:23;12.30;75.10
14884;DHT22;7534;50.762;7.000;2023-11-19T20:23:50;12.30;75.30
14884;DHT22;7534;50.762;7.000;2023-11-19T20:26:18;12.30;74.70
14884;DHT22;7534;50.762;7.000;2023-11-19T20:28:48;12.40;74.60
14884;DHT22;7534;50.762;7.000;2023-11-19T20:31:14;12.40;74.90